createdAt,value
2023-11-06T00:01:35.195Z,101022.16
2023-11-06T00:06:38.240Z,101027.22
2023-11-06T00:11:42.178Z,101044.97
2023-11-06T00:16:44.951Z,101029.19
2023-11-06T00:21:47.574Z,101020.06
2023-11-06T00:26:50.194Z,101010.50
2023-11-06T00:31:52.808Z,101008.31
2023-11-06T00:36:55.620Z,101009.97
2023-11-06T00:41:58.327Z,101004.06
2023-11-06T00:47:01.004Z,101005.53
2023-11-06T00:52:04.267Z,100985.72
2023-11-06T00:57:06.994Z,100991.91
2023-11-06T01:02:09.639Z,100997.75
2023-11-06T01:07:12.332Z,100974.16
2023-11-06T01:12:15.064Z,100965.25
2023-11-06T01:17:17.837Z,100968.50
2023-11-06T01:22:31.101Z,100985.44
2023-11-06T01:27:41.894Z,100981.22
2023-11-06T01:32:44.781Z,100991.19
2023-11-06T01:37:48.485Z,100977.53
2023-11-06T01:42:53.887Z,100987.00
2023-11-06T01:47:56.757Z,100979.44
2023-11-06T01:53:06.058Z,100989.59
2023-11-06T01:58:08.753Z,101005.63
2023-11-06T02:03:12.264Z,101000.94
2023-11-06T02:08:17.679Z,100978.78
2023-11-06T02:13:21.446Z,100982.06
2023-11-06T02:18:24.200Z,100997.06
2023-11-06T02:23:27.739Z,100997.53
2023-11-06T02:28:30.620Z,100968.78
2023-11-06T02:33:33.327Z,100987.19
2023-11-06T02:38:37.562Z,100981.16
2023-11-06T02:43:40.193Z,100987.88
2023-11-06T02:48:43.321Z,100984.66
2023-11-06T02:53:46.006Z,100997.38
2023-11-06T02:58:48.715Z,100976.47
2023-11-06T03:03:52.206Z,100958.47
2023-11-06T03:08:55.720Z,100982.00
2023-11-06T03:13:58.310Z,100965.34
2023-11-06T03:19:00.996Z,100963.59
2023-11-06T03:24:03.721Z,100957.00
2023-11-06T03:29:06.551Z,100954.66
2023-11-06T03:34:09.317Z,100951.81
2023-11-06T03:39:11.950Z,100960.91
2023-11-06T03:44:15.400Z,100961.44
2023-11-06T03:49:18.124Z,100958.63
2023-11-06T03:54:21.341Z,100954.97
2023-11-06T03:59:23.924Z,100963.16
2023-11-06T04:04:26.810Z,100973.81
2023-11-06T04:09:29.445Z,100959.28
2023-11-06T04:14:32.133Z,100959.06
2023-11-06T04:19:34.880Z,100944.88
2023-11-06T04:24:37.531Z,100952.72
2023-11-06T04:29:40.103Z,100949.19
2023-11-06T04:34:43.015Z,100951.22
2023-11-06T04:39:45.635Z,100968.31
2023-11-06T04:44:48.333Z,100971.94
2023-11-06T04:49:51.105Z,100965.72
2023-11-06T04:54:53.713Z,100974.41
2023-11-06T04:59:56.473Z,100961.66
2023-11-06T05:04:59.236Z,100964.75
2023-11-06T05:10:02.360Z,100970.00
2023-11-06T05:15:07.342Z,100962.09
2023-11-06T05:20:11.435Z,100958.75
2023-11-06T05:25:14.245Z,100963.03
2023-11-06T05:30:16.912Z,100965.47
2023-11-06T05:35:19.654Z,100969.03
2023-11-06T05:40:22.410Z,100968.75
2023-11-06T05:45:25.031Z,100961.31
2023-11-06T05:50:27.717Z,100961.84
2023-11-06T05:55:30.318Z,100942.97
2023-11-06T06:00:32.962Z,100956.47
2023-11-06T06:05:35.940Z,100937.84
2023-11-06T06:10:38.754Z,100938.34
2023-11-06T06:15:41.390Z,100937.16
2023-11-06T06:20:44.045Z,100934.47
2023-11-06T06:25:46.956Z,100940.56
2023-11-06T06:30:50.050Z,100943.34
2023-11-06T06:35:52.660Z,100953.25
2023-11-06T06:40:55.721Z,100961.84
2023-11-06T06:45:58.338Z,100966.38
2023-11-06T06:51:02.788Z,100975.75
2023-11-06T06:56:05.899Z,100977.56
2023-11-06T07:01:09.680Z,100969.53
2023-11-06T07:06:12.871Z,100962.69
2023-11-06T07:11:15.651Z,100960.84
2023-11-06T07:16:18.278Z,100942.34
2023-11-06T07:21:20.878Z,100952.50
2023-11-06T07:26:23.978Z,100943.25
2023-11-06T07:31:26.656Z,100946.69
2023-11-06T07:36:29.238Z,100954.72
2023-11-06T07:41:31.921Z,100926.78
2023-11-06T07:46:34.518Z,100940.63
2023-11-06T07:51:37.103Z,100927.69
2023-11-06T07:56:39.755Z,100919.25
2023-11-06T08:01:42.613Z,100919.06
2023-11-06T08:06:45.278Z,100925.91
2023-11-06T08:11:50.243Z,100932.00
2023-11-06T08:16:53.695Z,100916.69
2023-11-06T08:21:58.945Z,100896.97
2023-11-06T08:27:03.340Z,100892.41
2023-11-06T08:32:06.486Z,100892.06
2023-11-06T08:37:12.433Z,100878.56
2023-11-06T08:42:16.598Z,100852.84
2023-11-06T08:47:20.639Z,100850.78
2023-11-06T08:52:23.486Z,100836.72
2023-11-06T08:57:26.263Z,100821.56
2023-11-06T09:02:29.219Z,100827.44
2023-11-06T09:07:32.211Z,100816.28
2023-11-06T09:12:35.038Z,100828.97
2023-11-06T09:17:37.696Z,100855.41
2023-11-06T09:22:42.116Z,100869.69
2023-11-06T09:27:47.321Z,100855.13
2023-11-06T09:32:52.345Z,100824.19
2023-11-06T09:37:55.013Z,100838.75
2023-11-06T09:42:57.852Z,100847.88
2023-11-06T09:48:03.885Z,100850.75
2023-11-06T09:53:06.932Z,100835.03
2023-11-06T09:58:12.385Z,100827.94
2023-11-06T10:03:16.198Z,100806.97
2023-11-06T10:08:32.694Z,100813.56
2023-11-06T10:13:55.437Z,100805.75
2023-11-06T10:19:17.802Z,100805.31
2023-11-06T10:24:20.559Z,100780.88
2023-11-06T10:29:23.267Z,100774.28
2023-11-06T10:34:28.572Z,100768.91
2023-11-06T10:39:35.025Z,100769.75
2023-11-06T10:44:39.200Z,100767.69
2023-11-06T10:49:51.672Z,100755.44
2023-11-06T10:54:57.837Z,100739.31
2023-11-06T11:00:12.443Z,100733.31
2023-11-06T11:05:34.959Z,100728.31
2023-11-06T11:10:39.577Z,100725.44
2023-11-06T11:15:44.305Z,100712.59
2023-11-06T11:20:54.260Z,100714.44
2023-11-06T11:26:05.688Z,100695.16
2023-11-06T11:31:49.067Z,100677.38
2023-11-06T11:36:51.828Z,100653.75
2023-11-06T11:42:00.598Z,100654.59
2023-11-06T11:47:05.608Z,100639.88
2023-11-06T11:52:09.947Z,100645.47
2023-11-06T11:57:13.022Z,100627.66
2023-11-06T12:02:30.781Z,100642.59
2023-11-06T12:07:41.858Z,100624.34
2023-11-06T12:12:44.537Z,100621.44
2023-11-06T12:17:47.518Z,100626.63
2023-11-06T12:22:53.660Z,100621.47
2023-11-06T12:28:02.948Z,100642.78
2023-11-06T12:33:19.152Z,100639.66
2023-11-06T12:38:37.181Z,100621.84
2023-11-06T12:43:40.382Z,100624.97
2023-11-06T13:59:30.235Z,100538.66
2023-11-06T14:04:36.821Z,100593.88
2023-11-06T14:09:48.178Z,100691.44
2023-11-06T14:14:51.670Z,100729.31
2023-11-06T14:19:54.376Z,100722.09
2023-11-06T14:24:57.112Z,100705.31
2023-11-06T14:30:01.109Z,100685.44
2023-11-06T14:35:05.029Z,100691.03
2023-11-06T14:40:14.930Z,100680.88
2023-11-06T14:45:19.433Z,100679.84
2023-11-06T14:50:22.105Z,100677.34
2023-11-06T14:55:25.206Z,100674.44
2023-11-06T15:00:28.438Z,100668.00
2023-11-06T15:05:33.077Z,100669.44
2023-11-06T15:10:36.671Z,100670.06
2023-11-06T15:15:41.464Z,100675.44
2023-11-06T15:20:45.535Z,100659.69
2023-11-06T15:25:48.981Z,100645.19
2023-11-06T15:30:52.928Z,100653.28
2023-11-06T15:35:56.662Z,100648.50
2023-11-06T15:41:05.964Z,100654.50
2023-11-06T15:46:14.382Z,100645.41
2023-11-06T15:51:24.023Z,100649.75
2023-11-06T15:56:26.896Z,100636.72
2023-11-06T16:01:31.313Z,100633.97
2023-11-06T16:06:35.606Z,100630.44
2023-11-06T16:11:42.213Z,100629.03
2023-11-06T16:16:46.096Z,100618.06
2023-11-06T16:21:49.722Z,100625.50
2023-11-06T16:26:52.465Z,100621.78
2023-11-06T16:31:57.744Z,100620.94
2023-11-06T16:37:36.278Z,100623.78
2023-11-06T16:42:39.759Z,100621.53
2023-11-06T16:47:43.175Z,100626.06
2023-11-06T16:52:46.211Z,100603.50
2023-11-06T16:57:49.841Z,100603.50
2023-11-06T17:02:53.825Z,100596.06
2023-11-06T17:07:58.721Z,100587.00
2023-11-06T17:13:01.408Z,100593.22
2023-11-06T17:18:06.258Z,100576.66
2023-11-06T17:23:09.027Z,100568.34
2023-11-06T17:28:11.611Z,100556.09
2023-11-06T17:33:14.322Z,100556.13
2023-11-06T17:38:17.411Z,100540.59
2023-11-06T17:43:20.442Z,100524.25
2023-11-06T17:48:23.487Z,100520.75
2023-11-06T17:53:26.925Z,100519.72
2023-11-06T17:58:30.171Z,100512.47
2023-11-06T18:03:33.153Z,100505.81
2023-11-06T18:08:38.256Z,100498.38
2023-11-06T18:13:45.139Z,100499.00
2023-11-06T18:18:48.480Z,100495.91
2023-11-06T18:23:51.196Z,100477.88
2023-11-06T18:28:53.836Z,100459.25
2023-11-06T18:33:56.720Z,100469.78
2023-11-06T18:38:59.613Z,100469.16
2023-11-06T18:44:02.276Z,100466.84
2023-11-06T18:49:06.286Z,100457.56
2023-11-06T18:54:08.955Z,100426.28
2023-11-06T18:59:11.954Z,100441.81
2023-11-06T19:04:14.607Z,100441.44
2023-11-06T19:09:18.851Z,100436.84
2023-11-06T19:14:22.270Z,100416.31
2023-11-06T19:19:25.611Z,100418.56
2023-11-06T19:24:28.194Z,100399.28
2023-11-06T19:29:31.000Z,100395.53
2023-11-06T19:34:33.779Z,100413.16
2023-11-06T19:39:36.822Z,100414.38
2023-11-06T19:44:39.456Z,100412.09
2023-11-06T19:49:42.056Z,100396.78
2023-11-06T19:54:44.910Z,100389.88
2023-11-06T19:59:58.039Z,100388.88
2023-11-06T20:05:16.519Z,100408.56
2023-11-06T20:10:19.614Z,100395.03
2023-11-06T20:15:22.301Z,100405.75
2023-11-06T20:20:24.883Z,100402.84
2023-11-06T20:25:27.944Z,100404.09
2023-11-06T20:30:30.600Z,100392.53
2023-11-06T20:35:33.326Z,100385.28
2023-11-06T20:40:36.076Z,100393.00
2023-11-06T20:45:38.744Z,100394.41
2023-11-06T20:50:41.371Z,100377.28
2023-11-06T20:55:44.076Z,100389.63
2023-11-06T21:00:48.811Z,100390.88
2023-11-06T21:05:51.384Z,100360.44
2023-11-06T21:10:54.015Z,100366.94
2023-11-06T21:15:57.552Z,100352.09
2023-11-06T21:21:00.202Z,100362.00
2023-11-06T21:26:03.785Z,100358.72
2023-11-06T21:31:06.346Z,100355.75
2023-11-06T21:36:09.459Z,100339.56
2023-11-06T21:41:12.038Z,100325.47
2023-11-06T21:46:14.814Z,100338.56
2023-11-06T21:51:17.696Z,100342.97
2023-11-06T21:56:20.419Z,100340.13
2023-11-06T22:01:24.031Z,100344.00
2023-11-06T22:06:26.905Z,100337.44
2023-11-06T22:11:29.581Z,100318.28
2023-11-06T22:16:32.237Z,100336.09
2023-11-06T22:21:34.802Z,100340.00
2023-11-06T22:26:37.509Z,100345.59
2023-11-06T22:31:44.441Z,100337.75
2023-11-06T22:36:47.281Z,100337.75
2023-11-06T22:41:49.977Z,100336.88
2023-11-06T22:46:53.062Z,100345.59
2023-11-06T22:51:56.391Z,100364.03
2023-11-06T22:56:59.018Z,100371.13
2023-11-06T23:02:03.643Z,100358.31
2023-11-06T23:07:06.708Z,100375.03
2023-11-06T23:12:09.810Z,100383.34
2023-11-06T23:17:12.570Z,100370.91
2023-11-06T23:22:16.170Z,100380.00
2023-11-06T23:27:21.200Z,100388.28
2023-11-06T23:32:23.867Z,100379.19
2023-11-06T23:37:26.461Z,100382.25
2023-11-06T23:42:29.632Z,100384.34
2023-11-06T23:47:32.481Z,100382.47
2023-11-06T23:52:35.284Z,100392.56
2023-11-06T23:57:38.089Z,100394.06
